Time;durP1;ratioP1;P1;durP2;ratioP2;P2;SDS_P1;SDS_P2;PMS_P1;PMS_P2;Temp;Humidity;BMP_temperature;BMP_pressure;BME280_temperature;BME280_humidity;BME280_pressure;Samples;Min_cycle;Max_cycle;Signal;HPM_P1;HPM_P2
2023/10/16 00:01:26;;;;;;;6.33;1.35;;;;;;;9.13;79.52;99855.32;125179;1099;102028;-77
2023/10/16 00:03:56;;;;;;;1.27;0.90;;;;;;;9.12;80.21;99841.35;125115;1099;102091;-77
2023/10/16 00:06:24;;;;;;;1.40;0.90;;;;;;;9.06;79.66;99846.40;125077;1099;104178;-76
2023/10/16 00:08:53;;;;;;;4.57;1.10;;;;;;;9.02;80.18;99857.59;124473;1099;104229;-76
2023/10/16 00:11:23;;;;;;;2.37;1.03;;;;;;;9.02;79.95;99859.34;125101;1098;104249;-77
2023/10/16 00:13:56;;;;;;;2.30;0.87;;;;;;;8.96;79.68;99850.46;125007;1099;101934;-78
2023/10/16 00:16:25;;;;;;;4.80;1.80;;;;;;;8.93;80.37;99858.22;124624;1099;104196;-76
2023/10/16 00:18:59;;;;;;;5.90;1.70;;;;;;;8.88;81.18;99856.28;124978;1099;104280;-77
2023/10/16 00:21:30;;;;;;;2.90;1.30;;;;;;;8.79;81.38;99862.13;125064;1099;101874;-77
2023/10/16 00:23:59;;;;;;;1.47;1.07;;;;;;;8.72;81.31;99862.75;125184;1099;101817;-77
2023/10/16 00:26:30;;;;;;;3.10;1.37;;;;;;;8.67;81.68;99864.33;125245;1099;102705;-78
2023/10/16 00:29:07;;;;;;;2.23;1.30;;;;;;;8.64;81.49;99876.45;125157;1099;104176;-77
2023/10/16 00:31:42;;;;;;;3.87;1.03;;;;;;;8.63;83.61;99876.39;125214;1099;104221;-78
2023/10/16 00:34:19;;;;;;;5.40;1.37;;;;;;;8.55;83.79;99873.52;125482;1098;102114;-78
2023/10/16 00:36:49;;;;;;;1.40;1.00;;;;;;;8.52;85.11;99876.03;125610;1099;102023;-78
2023/10/16 00:39:19;;;;;;;4.13;1.30;;;;;;;8.47;84.72;99882.84;125946;1098;102090;-78
2023/10/16 00:41:50;;;;;;;3.23;1.27;;;;;;;8.45;85.09;99892.37;126148;1099;101845;-78
2023/10/16 00:44:21;;;;;;;2.93;1.50;;;;;;;8.43;85.31;99881.86;126452;1099;104146;-80
2023/10/16 00:46:53;;;;;;;3.33;1.20;;;;;;;8.46;85.59;99886.28;126368;1099;101987;-79
2023/10/16 00:49:24;;;;;;;2.00;1.20;;;;;;;8.47;86.32;99888.07;126196;1099;101884;-79
2023/10/16 00:51:53;;;;;;;3.40;1.20;;;;;;;8.45;85.58;99884.53;125858;1099;102347;-78
2023/10/16 00:54:28;;;;;;;2.60;1.30;;;;;;;8.44;86.60;99893.20;125093;1099;104140;-79
2023/10/16 00:56:58;;;;;;;2.53;1.23;;;;;;;8.42;87.34;99894.84;125809;1099;104246;-81
2023/10/16 00:59:31;;;;;;;4.27;1.57;;;;;;;8.37;87.81;99889.45;125735;1099;102042;-80
2023/10/16 01:02:09;;;;;;;3.93;1.13;;;;;;;8.29;86.50;99888.31;125678;1099;102193;-78
2023/10/16 01:04:37;;;;;;;2.00;1.40;;;;;;;8.24;85.77;99885.53;125572;1099;102118;-79
2023/10/16 01:07:06;;;;;;;3.03;1.33;;;;;;;8.22;86.15;99900.25;125472;1099;104230;-78
2023/10/16 01:09:35;;;;;;;2.17;1.30;;;;;;;8.17;86.22;99898.33;125438;1099;102182;-79
2023/10/16 01:12:06;;;;;;;4.60;1.70;;;;;;;8.13;86.36;99897.30;125439;1099;104165;-82
2023/10/16 01:14:36;;;;;;;4.30;1.70;;;;;;;8.09;86.81;99900.66;124992;1099;104101;-81
2023/10/16 01:17:08;;;;;;;3.07;1.50;;;;;;;8.04;87.65;99896.97;125424;1099;104179;-79
2023/10/16 01:19:37;;;;;;;3.70;1.70;;;;;;;8.00;87.64;99918.62;125393;1099;102028;-81
2023/10/16 01:22:11;;;;;;;2.30;1.70;;;;;;;7.98;87.05;99915.04;125393;1099;101858;-80
2023/10/16 01:24:43;;;;;;;3.63;1.40;;;;;;;7.96;88.59;99921.94;125305;1099;101873;-81
2023/10/16 01:27:25;;;;;;;4.67;1.73;;;;;;;7.87;87.26;99923.39;125417;1098;101833;-80
2023/10/16 01:29:54;;;;;;;2.73;1.53;;;;;;;7.82;88.33;99930.17;125392;1099;118514;-79
2023/10/16 01:32:23;;;;;;;5.43;2.00;;;;;;;7.69;88.44;99933.14;125342;1099;101814;-80
2023/10/16 01:34:52;;;;;;;4.13;1.57;;;;;;;7.68;88.46;99941.80;125419;1099;104162;-79
2023/10/16 01:37:21;;;;;;;3.53;1.53;;;;;;;7.63;88.42;99940.73;125392;1099;104178;-80
2023/10/16 01:39:50;;;;;;;2.20;1.37;;;;;;;7.56;88.22;99939.63;125352;1098;101946;-79
2023/10/16 01:42:23;;;;;;;1.90;1.40;;;;;;;7.57;88.23;99941.38;125431;1099;104197;-79
2023/10/16 01:44:52;;;;;;;4.63;1.47;;;;;;;7.58;88.49;99950.13;125253;1099;104262;-79
2023/10/16 01:47:22;;;;;;;3.57;1.70;;;;;;;7.55;88.39;99945.66;125423;1099;104204;-79
2023/10/16 01:49:51;;;;;;;2.27;1.40;;;;;;;7.55;88.43;99954.38;125425;1099;104207;-79
2023/10/16 01:52:19;;;;;;;5.55;1.55;;;;;;;7.52;88.45;99955.98;124967;1099;102028;-79
2023/10/16 01:54:51;;;;;;;4.20;1.17;;;;;;;7.46;88.70;99961.84;125440;1099;101893;-79
2023/10/16 01:57:21;;;;;;;4.53;1.27;;;;;;;7.36;88.59;99960.59;124906;1099;104181;-79
2023/10/16 01:59:51;;;;;;;4.07;1.37;;;;;;;7.35;88.75;99973.59;124751;1099;102082;-78
2023/10/16 02:02:20;;;;;;;4.17;1.53;;;;;;;7.28;89.21;99985.51;125086;1099;102422;-79
2023/10/16 02:04:49;;;;;;;2.33;1.17;;;;;;;7.20;89.05;99982.58;125356;1098;102530;-79
2023/10/16 02:07:18;;;;;;;3.00;1.03;;;;;;;7.19;88.89;99983.41;125352;1099;104175;-78
2023/10/16 02:09:47;;;;;;;2.87;1.10;;;;;;;7.20;89.69;99981.70;125263;1099;102597;-78
2023/10/16 02:12:16;;;;;;;2.20;1.27;;;;;;;7.20;88.90;99985.20;125334;1099;102034;-78
2023/10/16 02:14:49;;;;;;;3.37;1.40;;;;;;;7.23;88.75;99975.70;125368;1099;101935;-78
2023/10/16 02:17:19;;;;;;;3.80;1.30;;;;;;;7.26;89.43;99992.39;125540;1099;104221;-80
2023/10/16 02:19:48;;;;;;;3.17;1.47;;;;;;;7.26;89.28;99988.88;125398;1099;102361;-80
2023/10/16 02:22:22;;;;;;;1.63;1.37;;;;;;;7.23;89.38;99984.44;125501;1098;104396;-80
2023/10/16 02:24:50;;;;;;;1.70;1.40;;;;;;;7.18;89.48;99994.69;125502;1099;104182;-79
2023/10/16 02:27:19;;;;;;;1.23;0.97;;;;;;;7.15;89.72;99994.56;125389;1098;102382;-80
2023/10/16 02:29:49;;;;;;;2.97;1.30;;;;;;;7.15;89.88;99993.65;125358;1099;104255;-80
2023/10/16 02:32:18;;;;;;;2.30;1.20;;;;;;;7.10;89.86;99992.58;125418;1099;104166;-80
2023/10/16 02:34:49;;;;;;;2.70;1.20;;;;;;;7.11;89.61;100008.30;125004;1099;104221;-80
2023/10/16 02:37:20;;;;;;;;;;;;;;;7.06;90.41;99991.57;124885;1099;104329;-80
2023/10/16 02:39:53;;;;;;;2.53;1.10;;;;;;;7.02;89.75;99993.14;125373;1098;104191;-80
2023/10/16 02:42:25;;;;;;;1.00;0.80;;;;;;;7.03;90.09;99988.83;125537;1099;104187;-78
2023/10/16 02:44:56;;;;;;;2.20;1.10;;;;;;;7.04;89.85;99993.20;125579;1099;102033;-78
2023/10/16 02:47:26;;;;;;;1.70;1.03;;;;;;;7.02;89.94;99994.87;125445;1099;104386;-77
2023/10/16 02:49:56;;;;;;;3.23;1.30;;;;;;;7.08;90.44;100000.34;125366;1099;104111;-79
2023/10/16 02:52:25;;;;;;;2.73;1.33;;;;;;;7.09;90.25;100001.22;125459;1099;104746;-79
2023/10/16 02:54:56;;;;;;;1.47;1.23;;;;;;;7.02;90.02;100000.08;125537;1098;104169;-81
2023/10/16 02:57:25;;;;;;;2.00;1.10;;;;;;;6.98;90.44;100000.77;125497;1099;104278;-79
2023/10/16 02:59:54;;;;;;;3.10;1.57;;;;;;;6.96;90.58;99998.09;125498;1099;104204;-78
2023/10/16 03:02:23;;;;;;;1.73;1.27;;;;;;;6.97;90.84;99999.89;125565;1099;104316;-80
2023/10/16 03:04:51;;;;;;;2.73;1.30;;;;;;;7.01;90.54;99995.68;125435;1099;104303;-80
2023/10/16 03:07:21;;;;;;;2.33;1.50;;;;;;;7.04;90.62;99992.33;124914;1099;101904;-79
2023/10/16 03:09:51;;;;;;;3.70;1.20;;;;;;;7.00;90.42;100000.02;125565;1099;104169;-81
2023/10/16 03:12:20;;;;;;;1.93;1.20;;;;;;;7.02;90.92;100006.18;125501;1099;104169;-79
2023/10/16 03:14:51;;;;;;;3.23;1.63;;;;;;;7.04;90.78;99994.93;125465;1099;104268;-81
2023/10/16 03:17:25;;;;;;;3.90;1.73;;;;;;;7.02;90.15;99994.87;125551;1098;101836;-79
2023/10/16 03:19:55;;;;;;;3.17;1.40;;;;;;;7.02;90.57;100000.96;125604;1099;102476;-82
2023/10/16 03:22:24;;;;;;;3.07;1.23;;;;;;;7.02;90.55;100020.95;125599;1099;104176;-80
2023/10/16 03:24:55;;;;;;;1.67;1.40;;;;;;;7.01;90.77;100034.81;125585;1099;104229;-82
2023/10/16 03:27:28;;;;;;;1.33;1.23;;;;;;;7.01;91.08;100046.16;125464;1099;104207;-80
2023/10/16 03:29:59;;;;;;;2.70;1.60;;;;;;;7.01;91.05;100042.64;125560;1099;104191;-80
2023/10/16 03:32:30;;;;;;;1.77;1.30;;;;;;;7.05;91.61;100031.52;125597;1099;104102;-82
2023/10/16 03:35:05;;;;;;;3.07;1.50;;;;;;;7.07;90.96;100040.29;125591;1098;102322;-82
2023/10/16 03:37:35;;;;;;;2.40;1.50;;;;;;;7.04;90.84;100047.98;125548;1099;102191;-81
2023/10/16 03:40:11;;;;;;;3.27;1.80;;;;;;;7.00;91.31;100052.19;125574;1099;101820;-82
2023/10/16 03:42:40;;;;;;;5.90;1.60;;;;;;;6.97;90.91;100035.53;125540;1099;112403;-81
2023/10/16 03:45:10;;;;;;;3.10;1.57;;;;;;;6.97;91.19;100019.87;125518;1099;101827;-79
2023/10/16 03:47:38;;;;;;;1.63;1.40;;;;;;;6.97;91.10;100018.15;125584;1099;104182;-80
2023/10/16 03:50:08;;;;;;;2.00;1.33;;;;;;;6.91;90.52;100017.01;125533;1098;104201;-81
2023/10/16 03:52:38;;;;;;;3.33;1.20;;;;;;;6.88;90.62;100012.55;125581;1099;101855;-82
2023/10/16 03:55:22;;;;;;;3.10;1.50;;;;;;;6.89;91.19;100008.20;125556;1098;102122;-78
2023/10/16 03:57:51;;;;;;;3.17;1.50;;;;;;;6.91;91.00;100010.06;125532;1099;101834;-80
2023/10/16 04:00:25;;;;;;;3.37;1.50;;;;;;;6.94;91.14;100018.02;125501;1098;103360;-80
2023/10/16 04:02:59;;;;;;;3.63;1.30;;;;;;;6.93;90.96;100023.17;125150;1099;104310;-80
2023/10/16 04:05:30;;;;;;;3.02;1.45;;;;;;;6.92;91.38;100023.98;125498;1099;104185;-82
2023/10/16 04:07:58;;;;;;;3.77;1.60;;;;;;;6.87;91.02;100043.77;125544;1099;104194;-82
2023/10/16 04:10:28;;;;;;;3.17;1.70;;;;;;;6.88;91.35;100062.09;125559;1099;101829;-81
2023/10/16 04:12:57;;;;;;;2.00;1.50;;;;;;;6.86;91.05;100068.06;125621;1098;104166;-81
2023/10/16 04:15:50;;;;;;;3.90;1.80;;;;;;;6.86;91.34;100083.70;125586;1099;104217;-78
2023/10/16 04:18:28;;;;;;;2.50;1.80;;;;;;;6.84;91.66;100092.38;125658;1099;104220;-82
2023/10/16 04:21:37;;;;;;;4.87;1.70;;;;;;;6.82;91.47;100107.08;125597;1099;104373;-84
2023/10/16 04:24:01;;;;;;;2.10;1.37;;;;;;;6.78;91.58;100107.75;125408;1098;104231;-84
2023/10/16 04:26:33;;;;;;;2.97;1.70;;;;;;;6.80;92.27;100111.31;124874;1099;102418;-83
2023/10/16 04:29:25;;;;;;;3.25;2.00;;;;;;;6.79;92.50;100109.55;125746;1099;102015;-85
2023/10/16 04:31:58;;;;;;;4.73;1.97;;;;;;;6.79;92.60;100119.06;125589;1099;104197;-83
2023/10/16 04:34:34;;;;;;;4.40;1.80;;;;;;;6.84;93.21;100128.02;125662;1099;110786;-81
2023/10/16 04:42:50;;;;;;;8.30;2.20;;;;;;;6.80;93.98;100124.35;125612;1099;104403;-82
2023/10/16 04:45:26;;;;;;;5.23;2.07;;;;;;;6.81;93.87;100113.11;125534;1099;102225;-82
2023/10/16 04:48:06;;;;;;;4.27;2.23;;;;;;;6.86;94.22;100108.09;125691;1099;102114;-80
2023/10/16 04:50:40;;;;;;;4.23;2.10;;;;;;;6.86;94.17;100097.66;125313;1099;102009;-82
2023/10/16 04:53:11;;;;;;;5.07;2.33;;;;;;;6.91;93.58;100113.52;125710;1099;104210;-79
2023/10/16 04:55:53;;;;;;;4.90;2.13;;;;;;;6.94;93.51;100134.52;125641;1098;101915;-85
2023/10/16 04:58:39;;;;;;;4.97;2.10;;;;;;;6.98;93.61;100141.64;125736;1099;104207;-84
2023/10/16 05:04:49;;;;;;;7.80;2.10;;;;;;;7.00;93.61;100182.63;125761;1099;104181;-83
2023/10/16 05:07:18;;;;;;;7.20;2.10;;;;;;;6.99;94.06;100190.39;125478;1099;104224;-83
2023/10/16 05:18:43;;;;;;;5.12;2.12;;;;;;;7.09;94.17;100195.20;125397;1102;103069;-80
2023/10/16 06:15:20;;;;;;;19.27;4.10;;;;;;;7.60;95.34;100231.34;125562;1098;102323;-83
2023/10/16 06:17:52;;;;;;;11.43;4.20;;;;;;;7.65;95.37;100235.06;125618;1099;104313;-81
2023/10/16 06:20:30;;;;;;;15.05;4.50;;;;;;;7.69;95.51;100239.58;125519;1099;104172;-82
2023/10/16 06:23:00;;;;;;;;;;;;;;;7.76;96.33;100250.28;126289;1099;101800;-79
2023/10/16 06:25:37;;;;;;;12.83;3.93;;;;;;;7.79;95.47;100264.39;125990;1099;104166;-80
2023/10/16 06:28:11;;;;;;;12.10;4.03;;;;;;;7.82;95.54;100266.22;125802;1098;102042;-82
2023/10/16 06:30:46;;;;;;;10.87;4.27;;;;;;;7.84;95.25;100254.14;125956;1099;102593;-84
2023/10/16 06:33:15;;;;;;;13.57;4.70;;;;;;;7.90;95.62;100262.24;124918;1099;104406;-82
2023/10/16 06:35:43;;;;;;;13.50;4.43;;;;;;;7.94;95.78;100271.09;125498;1099;101923;-78
2023/10/16 06:38:14;;;;;;;16.03;4.40;;;;;;;7.96;95.83;100266.81;125522;1099;102720;-82
2023/10/16 06:40:44;;;;;;;10.33;4.17;;;;;;;7.97;95.58;100277.33;125712;1099;104239;-79
2023/10/16 06:43:14;;;;;;;16.37;4.80;;;;;;;8.05;95.65;100275.05;126409;1098;104176;-80
2023/10/16 06:45:55;;;;;;;13.23;4.97;;;;;;;8.12;96.36;100266.64;125622;1099;101798;-80
2023/10/16 06:48:27;;;;;;;14.13;4.90;;;;;;;8.17;95.19;100265.11;127407;1098;101549;-82
2023/10/16 06:51:03;;;;;;;12.23;4.77;;;;;;;8.24;96.17;100261.02;126557;1098;102002;-84
2023/10/16 06:53:34;;;;;;;13.97;4.93;;;;;;;8.33;95.93;100268.36;126740;1098;104173;-83
2023/10/16 06:56:06;;;;;;;16.27;4.90;;;;;;;8.41;95.52;100274.78;125402;1102;104329;-84
2023/10/16 06:58:42;;;;;;;19.57;4.60;;;;;;;8.52;95.79;100272.64;126144;1099;104175;-81
2023/10/16 07:01:25;;;;;;;8.50;4.13;;;;;;;8.56;95.14;100275.44;126438;1099;102041;-82
2023/10/16 07:04:07;;;;;;;12.50;4.50;;;;;;;8.63;95.01;100276.56;126131;1098;102467;-82
2023/10/16 07:06:36;;;;;;;12.33;4.20;;;;;;;8.66;94.53;100278.42;125459;1099;104146;-82
2023/10/16 07:09:05;;;;;;;10.00;4.33;;;;;;;8.65;94.25;100274.92;125526;1099;102408;-81
2023/10/16 07:11:42;;;;;;;18.43;5.00;;;;;;;8.68;94.57;100274.13;125448;1099;104296;-79
2023/10/16 07:14:17;;;;;;;29.35;5.95;;;;;;;8.76;94.97;100283.20;126446;1099;101916;-81
2023/10/16 07:16:48;;;;;;;14.00;4.33;;;;;;;8.81;94.22;100281.65;126339;1098;105533;-82
2023/10/16 07:19:19;;;;;;;12.83;4.30;;;;;;;8.84;93.90;100296.59;125701;1099;101796;-80
2023/10/16 07:21:48;;;;;;;8.97;3.93;;;;;;;8.85;93.83;100293.11;125672;1099;102178;-82
2023/10/16 07:24:24;;;;;;;9.60;3.93;;;;;;;8.89;94.59;100295.91;125480;1098;104325;-84
2023/10/16 07:26:55;;;;;;;18.90;4.47;;;;;;;8.94;94.06;100286.55;125895;1099;101862;-80
2023/10/16 07:29:29;;;;;;;12.57;3.73;;;;;;;9.00;93.73;100294.59;125976;1099;104185;-79
2023/10/16 07:32:08;;;;;;;14.33;4.33;;;;;;;9.03;93.07;100290.34;126370;1098;104189;-82
2023/10/16 07:34:41;;;;;;;10.10;4.17;;;;;;;9.06;93.10;100293.95;126162;1098;104185;-81
2023/10/16 07:37:13;;;;;;;22.87;4.87;;;;;;;9.12;93.71;100298.55;126408;1099;104208;-80
2023/10/16 07:39:42;;;;;;;13.85;3.65;;;;;;;9.17;91.71;100297.86;125033;1099;104175;-80
2023/10/16 07:42:12;;;;;;;11.30;3.63;;;;;;;9.21;92.32;100311.07;127385;1098;101737;-82
2023/10/16 07:44:45;;;;;;;13.27;3.60;;;;;;;9.27;92.89;100324.40;126594;1099;104237;-81
2023/10/16 07:47:14;;;;;;;12.43;3.90;;;;;;;9.31;92.20;100321.07;126825;1098;102962;-81
2023/10/16 07:49:49;;;;;;;9.47;3.30;;;;;;;9.31;92.47;100319.34;125895;1099;101862;-83
2023/10/16 07:52:23;;;;;;;8.83;3.77;;;;;;;9.33;91.93;100333.40;125591;1099;102550;-83
2023/10/16 07:54:52;;;;;;;9.23;3.40;;;;;;;9.37;92.04;100333.52;125463;1099;104172;-82
2023/10/16 07:57:24;;;;;;;11.93;3.60;;;;;;;9.37;90.93;100336.14;125906;1099;104211;-82
2023/10/16 07:59:54;;;;;;;11.07;4.17;;;;;;;9.43;89.74;100345.11;126389;1099;101946;-81
2023/10/16 08:02:24;;;;;;;9.37;4.37;;;;;;;9.48;87.92;100350.52;127411;1098;102067;-80
2023/10/16 08:05:03;;;;;;;12.87;4.60;;;;;;;9.47;88.32;100359.20;127046;1098;101791;-80
2023/10/16 08:07:46;;;;;;;14.27;4.87;;;;;;;9.55;88.41;100357.75;126000;1098;104332;-78
2023/10/16 08:13:11;;;;;;;12.60;4.47;;;;;;;9.78;87.68;100350.75;126826;1098;101912;-80
2023/10/16 08:15:49;;;;;;;12.60;4.30;;;;;;;9.87;85.74;100356.33;125834;1099;104141;-83
2023/10/16 08:18:25;;;;;;;10.23;4.03;;;;;;;10.02;86.43;100352.45;126125;1099;102177;-78
2023/10/16 08:21:06;;;;;;;10.77;3.80;;;;;;;10.11;85.74;100354.52;126283;1098;104242;-79
2023/10/16 08:23:45;;;;;;;9.37;4.00;;;;;;;10.21;85.57;100357.52;126160;1099;102036;-79
2023/10/16 08:26:28;;;;;;;9.97;3.47;;;;;;;10.29;85.06;100363.03;126341;1099;102415;-81
2023/10/16 08:29:11;;;;;;;8.57;3.00;;;;;;;10.24;83.67;100356.75;126798;1098;101696;-82
2023/10/16 08:31:44;;;;;;;10.90;3.33;;;;;;;10.42;83.62;100367.00;126107;1099;104335;-80
2023/10/16 08:34:19;;;;;;;11.63;3.53;;;;;;;10.56;83.25;100367.47;126501;1098;104304;-83
2023/10/16 08:37:03;;;;;;;12.47;3.40;;;;;;;10.58;83.36;100352.66;126844;1098;101623;-84
2023/10/16 08:39:37;;;;;;;12.88;4.08;;;;;;;10.70;83.51;100368.81;125993;1099;104157;-82
2023/10/16 08:42:18;;;;;;;11.77;3.60;;;;;;;10.84;82.72;100355.26;126017;1099;104201;-83
2023/10/16 08:45:14;;;;;;;9.33;3.60;;;;;;;10.81;81.55;100360.41;126079;1099;102049;-81
2023/10/16 08:47:46;;;;;;;16.40;4.28;;;;;;;10.89;82.65;100372.04;126589;1098;101817;-80
2023/10/16 08:50:40;;;;;;;10.53;3.40;;;;;;;11.02;79.53;100370.72;126062;1098;104169;-84
2023/10/16 08:53:42;;;;;;;10.30;3.30;;;;;;;11.06;79.37;100388.34;126068;1099;104187;-81
2023/10/16 08:56:18;;;;;;;12.40;3.10;;;;;;;11.17;77.76;100396.56;126102;1099;102121;-83
2023/10/16 08:59:01;;;;;;;15.03;3.20;;;;;;;11.07;75.99;100380.51;125655;1099;102076;-86
2023/10/16 09:01:32;;;;;;;10.93;3.30;;;;;;;11.01;77.34;100379.44;126498;1099;101969;-80
2023/10/16 09:04:06;;;;;;;8.27;3.17;;;;;;;11.06;77.41;100389.22;125511;1099;104163;-81
2023/10/16 09:06:37;;;;;;;8.60;3.37;;;;;;;11.15;73.85;100393.88;126559;1099;102417;-82
2023/10/16 09:09:13;;;;;;;14.00;3.13;;;;;;;11.06;76.71;100389.22;125916;1099;104351;-83
2023/10/16 09:11:45;;;;;;;7.13;2.80;;;;;;;11.14;75.68;100393.00;127008;1099;102016;-79
2023/10/16 09:14:17;;;;;;;8.60;2.93;;;;;;;11.20;74.14;100394.91;127458;1098;101441;-87
2023/10/16 09:16:55;;;;;;;7.93;3.30;;;;;;;11.28;72.37;100388.19;127804;1098;101369;-83
2023/10/16 09:19:33;;;;;;;13.83;3.50;;;;;;;11.36;71.93;100393.67;125817;1099;102706;-84
2023/10/16 09:22:08;;;;;;;8.90;3.00;;;;;;;11.47;71.99;100392.26;126249;1099;101990;-83
2023/10/16 09:24:44;;;;;;;10.50;2.60;;;;;;;11.50;71.61;100397.61;125804;1099;101841;-88
2023/10/16 09:27:16;;;;;;;8.88;2.75;;;;;;;11.59;68.69;100399.59;126439;1098;102641;-85
2023/10/16 09:29:53;;;;;;;11.07;2.60;;;;;;;11.61;71.26;100394.39;126213;1099;104179;-87
2023/10/16 09:32:28;;;;;;;11.23;2.90;;;;;;;11.67;72.70;100390.23;126156;1099;102002;-83
2023/10/16 09:35:05;;;;;;;8.53;2.60;;;;;;;11.76;72.25;100394.84;126067;1098;104168;-83
2023/10/16 09:37:38;;;;;;;9.80;2.80;;;;;;;11.75;69.95;100414.11;126130;1099;104641;-81
2023/10/16 09:40:35;;;;;;;8.77;3.00;;;;;;;11.67;69.84;100408.62;125929;1098;102020;-81
2023/10/16 09:43:13;;;;;;;9.77;3.10;;;;;;;11.57;67.74;100419.70;125932;1099;101798;-81
2023/10/16 09:45:46;;;;;;;11.33;3.07;;;;;;;11.37;66.42;100432.22;125512;1098;102035;-83
2023/10/16 09:48:19;;;;;;;;;;;;;;;11.20;67.45;100430.80;125623;1099;102985;-86
2023/10/16 09:50:52;;;;;;;10.07;3.00;;;;;;;11.08;69.36;100428.66;125458;1099;104160;-82
2023/10/16 09:53:30;;;;;;;10.50;3.00;;;;;;;10.96;68.43;100437.92;125544;1099;101803;-79
2023/10/16 09:56:05;;;;;;;10.03;3.07;;;;;;;10.91;67.49;100452.64;125370;1099;101799;-82
2023/10/16 09:58:44;;;;;;;13.67;3.67;;;;;;;10.90;69.35;100432.47;125493;1099;102432;-81
2023/10/16 10:01:28;;;;;;;12.33;3.40;;;;;;;11.13;69.16;100435.84;125642;1099;101999;-84
2023/10/16 10:04:03;;;;;;;10.50;3.40;;;;;;;11.31;68.85;100425.05;126645;1099;102007;-82
2023/10/16 10:06:38;;;;;;;9.80;3.40;;;;;;;11.45;67.54;100416.69;125701;1099;102047;-84
2023/10/16 10:09:23;;;;;;;7.90;2.83;;;;;;;11.39;66.26;100416.50;126345;1099;104245;-85
2023/10/16 10:12:13;;;;;;;6.63;2.73;;;;;;;11.45;66.73;100425.48;125945;1099;117937;-80
2023/10/16 10:15:01;;;;;;;13.70;3.47;;;;;;;11.57;62.24;100429.33;126177;1098;104194;-78
2023/10/16 10:17:38;;;;;;;6.97;2.80;;;;;;;11.71;63.27;100433.25;126948;1098;104217;-86
2023/10/16 10:20:23;;;;;;;9.20;2.80;;;;;;;11.68;62.15;100425.27;127372;1098;101798;-80
2023/10/16 10:23:04;;;;;;;9.57;2.63;;;;;;;11.54;61.37;100437.12;126051;1099;104172;-83
2023/10/16 10:25:37;;;;;;;7.53;2.50;;;;;;;11.51;62.32;100441.44;126157;1099;101868;-80
2023/10/16 10:28:22;;;;;;;5.70;2.22;;;;;;;11.57;61.69;100445.09;125386;1099;102063;-81
2023/10/16 10:30:55;;;;;;;9.33;2.47;;;;;;;11.63;60.79;100440.03;126522;1098;102112;-87
2023/10/16 10:33:51;;;;;;;9.67;2.70;;;;;;;11.65;60.22;100435.70;125562;1098;101887;-83
2023/10/16 10:36:36;;;;;;;7.77;2.40;;;;;;;11.72;60.57;100442.94;126203;1098;102351;-83
2023/10/16 10:39:47;;;;;;;7.07;2.53;;;;;;;11.87;61.28;100434.59;126574;1098;101981;-81
2023/10/16 10:42:25;;;;;;;8.35;2.85;;;;;;;12.07;60.76;100422.05;125460;1099;101948;-78
2023/10/16 10:45:21;;;;;;;10.13;2.83;;;;;;;12.22;60.79;100433.02;126908;1098;101778;-88
2023/10/16 10:48:02;;;;;;;8.13;2.83;;;;;;;12.29;57.79;100451.59;126150;1099;102055;-82
2023/10/16 10:50:34;;;;;;;10.50;2.80;;;;;;;12.28;58.87;100431.39;127197;1098;101483;-81
2023/10/16 10:53:13;;;;;;;9.23;2.80;;;;;;;12.40;58.19;100453.69;126325;1099;101855;-82
2023/10/16 10:55:59;;;;;;;8.03;2.80;;;;;;;12.44;58.53;100454.66;127194;1098;101683;-82
2023/10/16 10:58:38;;;;;;;10.73;3.47;;;;;;;12.41;56.17;100465.09;125920;1099;104271;-86
2023/10/16 11:01:16;;;;;;;10.00;2.63;;;;;;;12.43;56.79;100451.98;126013;1098;104246;-80
2023/10/16 11:03:46;;;;;;;6.33;2.17;;;;;;;12.32;56.66;100433.27;127141;1098;101752;-84
2023/10/16 11:06:18;;;;;;;5.47;2.27;;;;;;;12.26;54.86;100456.77;126305;1099;101928;-83
2023/10/16 11:08:50;;;;;;;6.73;2.60;;;;;;;12.33;57.51;100445.59;125476;1098;102116;-83
2023/10/16 11:11:19;;;;;;;7.67;2.57;;;;;;;12.40;53.74;100455.41;126686;1098;101826;-80
2023/10/16 11:13:51;;;;;;;7.93;2.30;;;;;;;12.46;55.00;100450.31;124900;1099;104194;-82
2023/10/16 11:16:28;;;;;;;8.63;2.80;;;;;;;12.53;54.38;100457.54;125867;1099;101883;-79
2023/10/16 11:19:05;;;;;;;9.70;2.73;;;;;;;12.62;54.92;100454.28;126076;1099;104191;-79
2023/10/16 11:21:44;;;;;;;9.23;2.70;;;;;;;12.59;55.99;100457.70;126763;1098;102025;-80
2023/10/16 11:24:24;;;;;;;8.67;2.93;;;;;;;12.44;54.50;100461.67;126747;1098;101935;-78
2023/10/16 11:26:55;;;;;;;8.73;3.07;;;;;;;12.29;55.68;100465.63;127496;1098;104099;-82
2023/10/16 11:29:42;;;;;;;9.57;2.80;;;;;;;12.15;55.54;100467.87;126632;1098;104198;-79
2023/10/16 11:32:41;;;;;;;9.07;2.53;;;;;;;11.95;55.01;100464.69;125949;1099;104169;-82
2023/10/16 11:35:26;;;;;;;10.50;2.90;;;;;;;11.83;56.15;100470.43;126332;1099;101783;-78
2023/10/16 11:38:13;;;;;;;9.20;3.10;;;;;;;11.69;55.96;100477.02;125650;1099;104216;-82
2023/10/16 11:41:04;;;;;;;9.43;3.27;;;;;;;11.56;55.64;100477.47;125874;1099;104075;-87
2023/10/16 11:43:38;;;;;;;;;;;;;;;11.47;55.55;100471.09;126920;1098;101872;-86
2023/10/16 11:46:27;;;;;;;6.87;2.70;;;;;;;11.47;55.22;100478.97;125048;1099;103256;-83
2023/10/16 11:49:17;;;;;;;7.63;3.00;;;;;;;11.43;55.76;100490.21;126393;1098;102037;-85
2023/10/16 11:51:49;;;;;;;8.17;3.00;;;;;;;11.39;55.60;100477.84;125778;1099;104172;-82
2023/10/16 11:54:19;;;;;;;8.57;3.40;;;;;;;11.41;56.07;100484.03;126516;1098;104166;-83
2023/10/16 11:56:53;;;;;;;9.40;3.30;;;;;;;11.45;55.21;100474.50;125554;1098;104271;-78
2023/10/16 11:59:25;;;;;;;9.13;2.95;;;;;;;11.55;55.76;100475.70;126357;1098;102035;-78
2023/10/16 12:01:59;;;;;;;9.37;3.20;;;;;;;11.71;56.06;100470.05;125465;1099;104201;-78
2023/10/16 12:04:29;;;;;;;8.63;3.37;;;;;;;11.82;54.75;100487.04;126057;1099;104179;-77
2023/10/16 12:06:58;;;;;;;11.47;2.83;;;;;;;11.82;54.75;100494.92;126281;1099;101921;-82
2023/10/16 12:09:36;;;;;;;8.07;3.10;;;;;;;11.82;54.64;100494.92;127421;1098;101581;-84
2023/10/16 12:12:07;;;;;;;10.23;3.10;;;;;;;11.80;54.41;100495.74;126262;1099;102077;-81
2023/10/16 12:14:37;;;;;;;10.00;3.50;;;;;;;11.73;53.52;100520.92;126113;1099;102241;-82
2023/10/16 12:17:25;;;;;;;9.20;3.07;;;;;;;11.68;52.65;100517.27;126092;1099;104230;-78
2023/10/16 12:19:55;;;;;;;9.27;3.20;;;;;;;11.71;52.61;100522.63;125461;1099;102419;-80
2023/10/16 12:22:26;;;;;;;10.07;3.23;;;;;;;11.77;51.22;100496.53;125389;1102;101851;-79
2023/10/16 12:24:58;;;;;;;7.70;3.20;;;;;;;11.89;51.26;100527.58;125473;1099;118067;-82
2023/10/16 12:27:33;;;;;;;12.07;3.40;;;;;;;11.98;52.46;100521.72;127713;1098;101469;-85
2023/10/16 12:30:15;;;;;;;5.87;2.37;;;;;;;12.02;50.57;100528.87;126017;1099;101778;-84
2023/10/16 12:33:06;;;;;;;7.00;2.60;;;;;;;11.91;49.04;100517.98;126718;1099;101793;-81
2023/10/16 12:35:47;;;;;;;7.10;2.30;;;;;;;11.82;48.99;100538.73;125680;1099;102253;-82
2023/10/16 12:38:24;;;;;;;6.75;2.10;;;;;;;11.77;50.49;100528.08;126140;1098;101934;-81
2023/10/16 12:40:57;;;;;;;5.27;2.27;;;;;;;11.80;50.21;100524.66;126341;1099;102578;-82
2023/10/16 12:43:36;;;;;;;5.63;2.40;;;;;;;11.82;50.66;100528.22;126093;1099;104152;-80
2023/10/16 12:46:08;;;;;;;6.90;2.30;;;;;;;11.81;49.03;100515.91;126871;1098;101740;-82
2023/10/16 12:48:37;;;;;;;5.87;2.33;;;;;;;11.80;50.71;100538.69;126897;1098;102070;-79
2023/10/16 12:51:10;;;;;;;9.87;2.40;;;;;;;11.77;50.05;100533.34;127300;1098;101960;-83
2023/10/16 12:54:03;;;;;;;4.47;2.33;;;;;;;11.72;50.41;100534.02;126834;1099;101958;-81
2023/10/16 12:56:41;;;;;;;7.63;2.73;;;;;;;11.63;51.27;100532.02;126838;1098;101775;-82
2023/10/16 12:59:13;;;;;;;7.70;3.10;;;;;;;11.62;50.45;100544.24;126623;1098;101931;-80
2023/10/16 13:02:04;;;;;;;;;;;;;;;;;;;;;
2023/10/16 13:04:51;;;;;;;6.27;2.50;;;;;;;11.59;51.54;100536.26;126740;1099;102412;-79
2023/10/16 13:07:52;;;;;;;5.83;2.80;;;;;;;11.55;50.92;100541.40;125942;1099;104208;-79